sensor_id;sensor_type;location;lat;lon;timestamp;P1;durP1;ratioP1;P2;durP2;ratioP2
51578;SDS011;47998;53.242;6.386;2023-05-07T00:00:01;35.85;;;25.63;;
51578;SDS011;47998;53.242;6.386;2023-05-07T00:02:27;34.83;;;26.00;;
51578;SDS011;47998;53.242;6.386;2023-05-07T00:04:53;37.17;;;25.45;;
51578;SDS011;47998;53.242;6.386;2023-05-07T00:07:18;33.60;;;24.45;;
51578;SDS011;47998;53.242;6.386;2023-05-07T00:09:44;41.03;;;28.08;;
51578;SDS011;47998;53.242;6.386;2023-05-07T00:12:10;33.50;;;25.23;;
51578;SDS011;47998;53.242;6.386;2023-05-07T00:14:35;42.88;;;28.55;;
51578;SDS011;47998;53.242;6.386;2023-05-07T00:17:01;36.60;;;28.10;;
51578;SDS011;47998;53.242;6.386;2023-05-07T00:19:27;37.30;;;26.48;;
51578;SDS011;47998;53.242;6.386;2023-05-07T00:21:52;44.03;;;29.27;;
51578;SDS011;47998;53.242;6.386;2023-05-07T00:24:19;42.35;;;29.15;;
51578;SDS011;47998;53.242;6.386;2023-05-07T00:26:45;45.08;;;28.48;;
51578;SDS011;47998;53.242;6.386;2023-05-07T00:29:10;40.53;;;30.00;;
51578;SDS011;47998;53.242;6.386;2023-05-07T00:31:36;39.30;;;29.52;;
51578;SDS011;47998;53.242;6.386;2023-05-07T00:34:02;42.72;;;29.25;;
51578;SDS011;47998;53.242;6.386;2023-05-07T00:36:28;44.05;;;29.90;;
51578;SDS011;47998;53.242;6.386;2023-05-07T00:38:54;46.95;;;31.13;;
51578;SDS011;47998;53.242;6.386;2023-05-07T00:41:22;47.55;;;32.40;;
51578;SDS011;47998;53.242;6.386;2023-05-07T00:43:48;46.53;;;31.77;;
51578;SDS011;47998;53.242;6.386;2023-05-07T00:46:13;48.05;;;31.83;;
51578;SDS011;47998;53.242;6.386;2023-05-07T00:48:40;46.58;;;32.47;;
51578;SDS011;47998;53.242;6.386;2023-05-07T00:51:06;47.70;;;32.50;;
51578;SDS011;47998;53.242;6.386;2023-05-07T00:53:32;43.17;;;31.77;;
51578;SDS011;47998;53.242;6.386;2023-05-07T00:55:58;48.83;;;32.67;;
51578;SDS011;47998;53.242;6.386;2023-05-07T00:58:25;47.45;;;33.28;;
51578;SDS011;47998;53.242;6.386;2023-05-07T01:00:51;52.45;;;34.03;;
51578;SDS011;47998;53.242;6.386;2023-05-07T01:03:17;48.50;;;33.67;;
51578;SDS011;47998;53.242;6.386;2023-05-07T01:05:43;51.58;;;35.72;;
51578;SDS011;47998;53.242;6.386;2023-05-07T01:08:11;54.03;;;36.33;;
51578;SDS011;47998;53.242;6.386;2023-05-07T01:10:37;52.60;;;36.78;;
51578;SDS011;47998;53.242;6.386;2023-05-07T01:13:07;62.53;;;39.13;;
51578;SDS011;47998;53.242;6.386;2023-05-07T01:15:37;56.08;;;37.25;;
51578;SDS011;47998;53.242;6.386;2023-05-07T01:18:03;58.63;;;37.95;;
51578;SDS011;47998;53.242;6.386;2023-05-07T01:20:30;60.00;;;39.47;;
51578;SDS011;47998;53.242;6.386;2023-05-07T01:22:56;58.40;;;38.20;;
51578;SDS011;47998;53.242;6.386;2023-05-07T01:25:22;55.33;;;36.15;;
51578;SDS011;47998;53.242;6.386;2023-05-07T01:27:49;56.40;;;38.50;;
51578;SDS011;47998;53.242;6.386;2023-05-07T01:30:15;58.95;;;40.38;;
51578;SDS011;47998;53.242;6.386;2023-05-07T01:32:43;58.63;;;39.42;;
51578;SDS011;47998;53.242;6.386;2023-05-07T01:35:11;56.42;;;39.10;;
51578;SDS011;47998;53.242;6.386;2023-05-07T01:37:39;61.80;;;40.58;;
51578;SDS011;47998;53.242;6.386;2023-05-07T01:40:05;65.53;;;41.83;;
51578;SDS011;47998;53.242;6.386;2023-05-07T01:42:32;58.08;;;39.80;;
51578;SDS011;47998;53.242;6.386;2023-05-07T01:44:58;59.05;;;40.88;;
51578;SDS011;47998;53.242;6.386;2023-05-07T01:47:24;61.58;;;41.00;;
51578;SDS011;47998;53.242;6.386;2023-05-07T01:49:51;59.45;;;40.50;;
51578;SDS011;47998;53.242;6.386;2023-05-07T01:52:17;61.80;;;40.97;;
51578;SDS011;47998;53.242;6.386;2023-05-07T01:54:43;62.13;;;42.50;;
51578;SDS011;47998;53.242;6.386;2023-05-07T01:57:08;63.70;;;42.55;;
51578;SDS011;47998;53.242;6.386;2023-05-07T01:59:35;64.82;;;42.28;;
51578;SDS011;47998;53.242;6.386;2023-05-07T02:02:00;68.25;;;44.70;;
51578;SDS011;47998;53.242;6.386;2023-05-07T02:04:26;66.30;;;43.78;;
51578;SDS011;47998;53.242;6.386;2023-05-07T02:06:52;63.83;;;43.55;;
51578;SDS011;47998;53.242;6.386;2023-05-07T02:09:17;65.15;;;42.17;;
51578;SDS011;47998;53.242;6.386;2023-05-07T02:11:44;64.60;;;42.47;;
51578;SDS011;47998;53.242;6.386;2023-05-07T02:14:10;63.08;;;42.75;;
51578;SDS011;47998;53.242;6.386;2023-05-07T02:16:35;59.63;;;41.08;;
51578;SDS011;47998;53.242;6.386;2023-05-07T02:19:01;63.42;;;41.63;;
51578;SDS011;47998;53.242;6.386;2023-05-07T02:21:27;63.10;;;39.53;;
51578;SDS011;47998;53.242;6.386;2023-05-07T02:23:53;65.95;;;41.58;;
51578;SDS011;47998;53.242;6.386;2023-05-07T02:26:19;60.25;;;39.58;;
51578;SDS011;47998;53.242;6.386;2023-05-07T02:28:46;60.67;;;40.63;;
51578;SDS011;47998;53.242;6.386;2023-05-07T02:31:12;64.93;;;39.90;;
51578;SDS011;47998;53.242;6.386;2023-05-07T02:33:38;63.83;;;39.15;;
51578;SDS011;47998;53.242;6.386;2023-05-07T02:36:07;60.90;;;41.10;;
51578;SDS011;47998;53.242;6.386;2023-05-07T02:38:34;60.85;;;39.78;;
51578;SDS011;47998;53.242;6.386;2023-05-07T02:41:00;60.75;;;39.60;;
51578;SDS011;47998;53.242;6.386;2023-05-07T02:43:26;63.80;;;40.33;;
51578;SDS011;47998;53.242;6.386;2023-05-07T02:46:04;67.00;;;42.20;;
51578;SDS011;47998;53.242;6.386;2023-05-07T02:48:30;66.43;;;41.35;;
51578;SDS011;47998;53.242;6.386;2023-05-07T02:50:57;69.13;;;42.42;;
51578;SDS011;47998;53.242;6.386;2023-05-07T02:53:23;73.43;;;42.15;;
51578;SDS011;47998;53.242;6.386;2023-05-07T02:55:51;71.70;;;42.80;;
51578;SDS011;47998;53.242;6.386;2023-05-07T02:58:20;70.28;;;41.42;;
51578;SDS011;47998;53.242;6.386;2023-05-07T03:00:46;74.10;;;42.63;;
51578;SDS011;47998;53.242;6.386;2023-05-07T03:03:12;69.82;;;42.53;;
51578;SDS011;47998;53.242;6.386;2023-05-07T03:05:38;71.55;;;42.53;;
51578;SDS011;47998;53.242;6.386;2023-05-07T03:08:04;70.07;;;42.50;;
51578;SDS011;47998;53.242;6.386;2023-05-07T03:10:30;67.70;;;42.45;;
51578;SDS011;47998;53.242;6.386;2023-05-07T03:12:55;70.68;;;41.72;;
51578;SDS011;47998;53.242;6.386;2023-05-07T03:15:21;71.28;;;41.90;;
51578;SDS011;47998;53.242;6.386;2023-05-07T03:17:47;69.15;;;43.13;;
51578;SDS011;47998;53.242;6.386;2023-05-07T03:20:13;72.40;;;42.70;;
51578;SDS011;47998;53.242;6.386;2023-05-07T03:22:39;80.03;;;44.35;;
51578;SDS011;47998;53.242;6.386;2023-05-07T03:25:05;73.93;;;42.00;;
51578;SDS011;47998;53.242;6.386;2023-05-07T03:27:31;74.68;;;45.40;;
51578;SDS011;47998;53.242;6.386;2023-05-07T03:29:57;71.63;;;42.53;;
51578;SDS011;47998;53.242;6.386;2023-05-07T03:32:23;74.15;;;43.20;;
51578;SDS011;47998;53.242;6.386;2023-05-07T03:34:48;76.25;;;44.33;;
51578;SDS011;47998;53.242;6.386;2023-05-07T03:37:14;68.25;;;42.28;;
51578;SDS011;47998;53.242;6.386;2023-05-07T03:39:40;76.82;;;44.70;;
51578;SDS011;47998;53.242;6.386;2023-05-07T03:42:06;75.88;;;45.58;;
51578;SDS011;47998;53.242;6.386;2023-05-07T03:44:31;64.72;;;40.97;;
51578;SDS011;47998;53.242;6.386;2023-05-07T03:46:57;75.85;;;42.80;;
51578;SDS011;47998;53.242;6.386;2023-05-07T03:49:23;74.82;;;43.58;;
51578;SDS011;47998;53.242;6.386;2023-05-07T03:51:48;72.22;;;44.10;;
51578;SDS011;47998;53.242;6.386;2023-05-07T03:54:14;71.90;;;43.35;;
51578;SDS011;47998;53.242;6.386;2023-05-07T03:56:40;65.43;;;42.53;;
51578;SDS011;47998;53.242;6.386;2023-05-07T03:59:05;79.07;;;45.17;;
51578;SDS011;47998;53.242;6.386;2023-05-07T04:01:31;76.25;;;44.72;;
51578;SDS011;47998;53.242;6.386;2023-05-07T04:03:57;76.18;;;45.80;;
51578;SDS011;47998;53.242;6.386;2023-05-07T04:06:22;72.68;;;42.28;;
51578;SDS011;47998;53.242;6.386;2023-05-07T04:08:48;70.22;;;44.20;;
51578;SDS011;47998;53.242;6.386;2023-05-07T04:11:14;76.63;;;45.63;;
51578;SDS011;47998;53.242;6.386;2023-05-07T04:13:39;69.38;;;43.70;;
51578;SDS011;47998;53.242;6.386;2023-05-07T04:16:05;75.70;;;44.40;;
51578;SDS011;47998;53.242;6.386;2023-05-07T04:18:31;73.95;;;45.72;;
51578;SDS011;47998;53.242;6.386;2023-05-07T04:20:57;75.43;;;44.38;;
51578;SDS011;47998;53.242;6.386;2023-05-07T04:23:23;66.93;;;41.95;;
51578;SDS011;47998;53.242;6.386;2023-05-07T04:25:48;69.57;;;43.92;;
51578;SDS011;47998;53.242;6.386;2023-05-07T04:28:15;67.22;;;42.70;;
51578;SDS011;47998;53.242;6.386;2023-05-07T04:30:40;74.97;;;43.55;;
51578;SDS011;47998;53.242;6.386;2023-05-07T04:33:06;67.35;;;42.63;;
51578;SDS011;47998;53.242;6.386;2023-05-07T04:35:32;67.07;;;42.67;;
51578;SDS011;47998;53.242;6.386;2023-05-07T04:37:58;63.80;;;41.40;;
51578;SDS011;47998;53.242;6.386;2023-05-07T04:40:24;69.13;;;41.63;;
51578;SDS011;47998;53.242;6.386;2023-05-07T04:42:49;69.25;;;41.45;;
51578;SDS011;47998;53.242;6.386;2023-05-07T04:45:16;69.30;;;42.30;;
51578;SDS011;47998;53.242;6.386;2023-05-07T04:47:42;64.93;;;41.25;;
51578;SDS011;47998;53.242;6.386;2023-05-07T04:50:07;64.25;;;39.88;;
51578;SDS011;47998;53.242;6.386;2023-05-07T04:52:33;68.78;;;41.88;;
51578;SDS011;47998;53.242;6.386;2023-05-07T04:54:59;70.68;;;42.72;;
51578;SDS011;47998;53.242;6.386;2023-05-07T04:57:26;64.78;;;40.95;;
51578;SDS011;47998;53.242;6.386;2023-05-07T04:59:52;62.25;;;39.53;;
51578;SDS011;47998;53.242;6.386;2023-05-07T05:02:18;62.95;;;41.60;;
51578;SDS011;47998;53.242;6.386;2023-05-07T05:04:44;61.72;;;41.72;;
51578;SDS011;47998;53.242;6.386;2023-05-07T05:07:10;65.07;;;41.92;;
51578;SDS011;47998;53.242;6.386;2023-05-07T05:09:36;69.80;;;42.78;;
51578;SDS011;47998;53.242;6.386;2023-05-07T05:12:02;60.25;;;38.58;;
51578;SDS011;47998;53.242;6.386;2023-05-07T05:14:29;62.90;;;40.67;;
51578;SDS011;47998;53.242;6.386;2023-05-07T05:16:54;61.33;;;39.67;;
51578;SDS011;47998;53.242;6.386;2023-05-07T05:19:20;54.63;;;36.17;;
51578;SDS011;47998;53.242;6.386;2023-05-07T05:21:46;57.13;;;36.13;;
51578;SDS011;47998;53.242;6.386;2023-05-07T05:24:12;52.90;;;37.80;;
51578;SDS011;47998;53.242;6.386;2023-05-07T05:26:37;52.53;;;37.00;;
51578;SDS011;47998;53.242;6.386;2023-05-07T05:29:03;52.00;;;34.90;;
51578;SDS011;47998;53.242;6.386;2023-05-07T05:31:29;52.53;;;36.55;;
51578;SDS011;47998;53.242;6.386;2023-05-07T05:33:54;54.45;;;37.33;;
51578;SDS011;47998;53.242;6.386;2023-05-07T05:36:20;52.78;;;35.03;;
51578;SDS011;47998;53.242;6.386;2023-05-07T05:38:46;53.85;;;36.70;;
51578;SDS011;47998;53.242;6.386;2023-05-07T05:41:12;52.45;;;35.42;;
51578;SDS011;47998;53.242;6.386;2023-05-07T05:43:37;50.17;;;36.33;;
51578;SDS011;47998;53.242;6.386;2023-05-07T05:46:03;57.75;;;35.85;;
51578;SDS011;47998;53.242;6.386;2023-05-07T05:48:33;53.55;;;36.65;;
51578;SDS011;47998;53.242;6.386;2023-05-07T05:50:58;50.72;;;36.03;;
51578;SDS011;47998;53.242;6.386;2023-05-07T05:53:24;47.72;;;33.55;;
51578;SDS011;47998;53.242;6.386;2023-05-07T05:55:50;49.13;;;33.35;;
51578;SDS011;47998;53.242;6.386;2023-05-07T05:58:16;44.38;;;30.48;;
51578;SDS011;47998;53.242;6.386;2023-05-07T06:00:42;49.25;;;33.60;;
51578;SDS011;47998;53.242;6.386;2023-05-07T06:03:08;43.90;;;33.15;;
51578;SDS011;47998;53.242;6.386;2023-05-07T06:05:33;45.35;;;32.67;;
51578;SDS011;47998;53.242;6.386;2023-05-07T06:07:59;41.90;;;31.20;;
51578;SDS011;47998;53.242;6.386;2023-05-07T06:10:25;44.80;;;30.30;;
51578;SDS011;47998;53.242;6.386;2023-05-07T06:12:52;42.35;;;30.75;;
51578;SDS011;47998;53.242;6.386;2023-05-07T06:15:17;39.10;;;29.05;;
51578;SDS011;47998;53.242;6.386;2023-05-07T06:17:43;39.53;;;29.48;;
51578;SDS011;47998;53.242;6.386;2023-05-07T06:20:09;38.50;;;29.23;;
51578;SDS011;47998;53.242;6.386;2023-05-07T06:22:35;39.05;;;29.58;;
51578;SDS011;47998;53.242;6.386;2023-05-07T06:25:01;39.45;;;28.98;;
51578;SDS011;47998;53.242;6.386;2023-05-07T06:27:26;40.75;;;29.52;;
51578;SDS011;47998;53.242;6.386;2023-05-07T06:29:53;38.40;;;28.30;;
51578;SDS011;47998;53.242;6.386;2023-05-07T06:32:18;37.70;;;28.75;;
51578;SDS011;47998;53.242;6.386;2023-05-07T06:34:44;40.40;;;28.25;;
51578;SDS011;47998;53.242;6.386;2023-05-07T06:37:10;42.33;;;28.48;;
51578;SDS011;47998;53.242;6.386;2023-05-07T06:39:35;38.40;;;26.75;;
51578;SDS011;47998;53.242;6.386;2023-05-07T06:42:01;33.75;;;25.80;;
51578;SDS011;47998;53.242;6.386;2023-05-07T06:44:27;35.50;;;26.25;;
51578;SDS011;47998;53.242;6.386;2023-05-07T06:46:53;32.83;;;27.15;;
51578;SDS011;47998;53.242;6.386;2023-05-07T06:49:19;31.85;;;26.02;;
51578;SDS011;47998;53.242;6.386;2023-05-07T06:51:45;37.80;;;27.02;;
51578;SDS011;47998;53.242;6.386;2023-05-07T06:54:10;32.85;;;25.77;;
51578;SDS011;47998;53.242;6.386;2023-05-07T06:56:36;35.60;;;27.30;;
51578;SDS011;47998;53.242;6.386;2023-05-07T06:59:02;39.92;;;30.10;;
51578;SDS011;47998;53.242;6.386;2023-05-07T07:01:28;33.72;;;25.75;;
51578;SDS011;47998;53.242;6.386;2023-05-07T07:03:54;33.85;;;25.88;;
51578;SDS011;47998;53.242;6.386;2023-05-07T07:06:20;32.50;;;25.08;;
51578;SDS011;47998;53.242;6.386;2023-05-07T07:08:46;29.23;;;24.75;;
51578;SDS011;47998;53.242;6.386;2023-05-07T07:11:11;32.38;;;24.42;;
51578;SDS011;47998;53.242;6.386;2023-05-07T07:13:37;35.10;;;26.05;;
51578;SDS011;47998;53.242;6.386;2023-05-07T07:16:03;32.22;;;25.77;;
51578;SDS011;47998;53.242;6.386;2023-05-07T07:18:29;31.40;;;25.13;;
51578;SDS011;47998;53.242;6.386;2023-05-07T07:20:54;29.65;;;23.55;;
51578;SDS011;47998;53.242;6.386;2023-05-07T07:23:20;29.60;;;24.02;;
51578;SDS011;47998;53.242;6.386;2023-05-07T07:25:46;30.63;;;24.50;;
51578;SDS011;47998;53.242;6.386;2023-05-07T07:28:12;29.05;;;22.95;;
51578;SDS011;47998;53.242;6.386;2023-05-07T07:30:38;32.38;;;25.30;;
51578;SDS011;47998;53.242;6.386;2023-05-07T07:33:04;30.52;;;24.95;;
51578;SDS011;47998;53.242;6.386;2023-05-07T07:35:30;34.20;;;25.95;;
51578;SDS011;47998;53.242;6.386;2023-05-07T07:37:59;33.08;;;24.77;;
51578;SDS011;47998;53.242;6.386;2023-05-07T07:40:25;34.35;;;25.48;;
51578;SDS011;47998;53.242;6.386;2023-05-07T07:42:51;31.35;;;23.40;;
51578;SDS011;47998;53.242;6.386;2023-05-07T07:45:18;32.85;;;26.05;;
51578;SDS011;47998;53.242;6.386;2023-05-07T07:47:43;31.73;;;24.88;;
51578;SDS011;47998;53.242;6.386;2023-05-07T07:50:09;32.85;;;25.52;;
51578;SDS011;47998;53.242;6.386;2023-05-07T07:52:35;32.50;;;25.77;;
51578;SDS011;47998;53.242;6.386;2023-05-07T07:55:01;31.52;;;24.33;;
51578;SDS011;47998;53.242;6.386;2023-05-07T07:57:27;34.75;;;26.02;;
51578;SDS011;47998;53.242;6.386;2023-05-07T07:59:53;33.83;;;25.63;;
51578;SDS011;47998;53.242;6.386;2023-05-07T08:02:19;35.78;;;25.60;;
51578;SDS011;47998;53.242;6.386;2023-05-07T08:04:45;33.25;;;25.90;;
51578;SDS011;47998;53.242;6.386;2023-05-07T08:07:10;33.10;;;25.17;;
51578;SDS011;47998;53.242;6.386;2023-05-07T08:09:37;29.88;;;24.20;;
51578;SDS011;47998;53.242;6.386;2023-05-07T08:12:03;36.60;;;26.73;;
51578;SDS011;47998;53.242;6.386;2023-05-07T08:14:30;32.53;;;24.27;;
51578;SDS011;47998;53.242;6.386;2023-05-07T08:16:55;33.88;;;26.00;;
51578;SDS011;47998;53.242;6.386;2023-05-07T08:19:21;30.90;;;23.83;;
51578;SDS011;47998;53.242;6.386;2023-05-07T08:21:47;33.13;;;24.73;;
51578;SDS011;47998;53.242;6.386;2023-05-07T08:24:13;29.77;;;24.20;;
51578;SDS011;47998;53.242;6.386;2023-05-07T08:26:40;29.45;;;24.10;;
51578;SDS011;47998;53.242;6.386;2023-05-07T08:29:06;29.45;;;22.38;;
51578;SDS011;47998;53.242;6.386;2023-05-07T08:31:32;26.92;;;22.05;;
51578;SDS011;47998;53.242;6.386;2023-05-07T08:33:58;30.55;;;23.17;;
51578;SDS011;47998;53.242;6.386;2023-05-07T08:36:25;26.42;;;21.65;;
51578;SDS011;47998;53.242;6.386;2023-05-07T08:38:51;27.70;;;21.92;;
51578;SDS011;47998;53.242;6.386;2023-05-07T08:41:17;26.48;;;21.52;;
51578;SDS011;47998;53.242;6.386;2023-05-07T08:43:45;24.70;;;20.98;;
51578;SDS011;47998;53.242;6.386;2023-05-07T08:46:16;32.33;;;23.42;;
51578;SDS011;47998;53.242;6.386;2023-05-07T08:48:43;27.55;;;20.90;;
51578;SDS011;47998;53.242;6.386;2023-05-07T08:51:12;25.95;;;22.02;;
51578;SDS011;47998;53.242;6.386;2023-05-07T08:53:40;26.70;;;20.90;;
51578;SDS011;47998;53.242;6.386;2023-05-07T08:56:07;26.30;;;19.75;;
51578;SDS011;47998;53.242;6.386;2023-05-07T08:58:34;24.08;;;19.85;;
51578;SDS011;47998;53.242;6.386;2023-05-07T09:01:01;26.70;;;20.42;;
51578;SDS011;47998;53.242;6.386;2023-05-07T09:03:32;25.17;;;21.42;;
51578;SDS011;47998;53.242;6.386;2023-05-07T09:05:58;24.73;;;21.42;;
51578;SDS011;47998;53.242;6.386;2023-05-07T09:08:27;24.58;;;20.30;;
51578;SDS011;47998;53.242;6.386;2023-05-07T09:10:53;25.27;;;21.48;;
51578;SDS011;47998;53.242;6.386;2023-05-07T09:13:19;29.77;;;20.65;;
51578;SDS011;47998;53.242;6.386;2023-05-07T09:15:45;27.55;;;21.98;;
51578;SDS011;47998;53.242;6.386;2023-05-07T09:18:12;23.90;;;20.15;;
51578;SDS011;47998;53.242;6.386;2023-05-07T09:20:37;24.92;;;20.30;;
51578;SDS011;47998;53.242;6.386;2023-05-07T09:23:05;25.10;;;20.15;;
51578;SDS011;47998;53.242;6.386;2023-05-07T09:25:32;24.85;;;19.25;;
51578;SDS011;47998;53.242;6.386;2023-05-07T09:27:59;24.52;;;18.88;;
51578;SDS011;47998;53.242;6.386;2023-05-07T09:30:32;23.85;;;19.67;;
51578;SDS011;47998;53.242;6.386;2023-05-07T09:32:59;26.25;;;20.63;;
51578;SDS011;47998;53.242;6.386;2023-05-07T09:35:26;22.73;;;18.48;;
51578;SDS011;47998;53.242;6.386;2023-05-07T09:37:52;21.92;;;18.63;;
51578;SDS011;47998;53.242;6.386;2023-05-07T09:40:23;22.70;;;20.17;;
51578;SDS011;47998;53.242;6.386;2023-05-07T09:42:50;23.70;;;20.02;;
51578;SDS011;47998;53.242;6.386;2023-05-07T09:45:16;23.65;;;18.52;;
51578;SDS011;47998;53.242;6.386;2023-05-07T09:47:56;22.55;;;18.02;;
51578;SDS011;47998;53.242;6.386;2023-05-07T09:50:26;22.63;;;18.65;;
51578;SDS011;47998;53.242;6.386;2023-05-07T09:52:54;24.17;;;19.80;;
51578;SDS011;47998;53.242;6.386;2023-05-07T09:55:21;22.90;;;19.33;;
51578;SDS011;47998;53.242;6.386;2023-05-07T09:57:49;21.08;;;18.20;;
51578;SDS011;47998;53.242;6.386;2023-05-07T10:00:18;20.98;;;18.20;;
51578;SDS011;47998;53.242;6.386;2023-05-07T10:02:49;23.73;;;19.15;;
51578;SDS011;47998;53.242;6.386;2023-05-07T10:05:20;22.70;;;19.17;;
51578;SDS011;47998;53.242;6.386;2023-05-07T10:07:47;21.00;;;18.42;;
51578;SDS011;47998;53.242;6.386;2023-05-07T10:10:14;22.42;;;19.13;;
51578;SDS011;47998;53.242;6.386;2023-05-07T10:12:41;24.90;;;19.23;;
51578;SDS011;47998;53.242;6.386;2023-05-07T10:15:07;20.00;;;17.50;;
51578;SDS011;47998;53.242;6.386;2023-05-07T10:17:38;22.75;;;18.45;;
51578;SDS011;47998;53.242;6.386;2023-05-07T10:20:05;22.80;;;19.00;;
51578;SDS011;47998;53.242;6.386;2023-05-07T10:22:32;35.10;;;23.55;;
51578;SDS011;47998;53.242;6.386;2023-05-07T10:25:22;30.52;;;20.88;;
51578;SDS011;47998;53.242;6.386;2023-05-07T10:27:53;25.23;;;19.10;;
51578;SDS011;47998;53.242;6.386;2023-05-07T10:32:51;22.67;;;17.15;;
51578;SDS011;47998;53.242;6.386;2023-05-07T10:35:21;18.42;;;16.30;;
51578;SDS011;47998;53.242;6.386;2023-05-07T10:37:51;20.17;;;17.98;;
51578;SDS011;47998;53.242;6.386;2023-05-07T10:40:18;26.65;;;19.42;;
51578;SDS011;47998;53.242;6.386;2023-05-07T10:43:04;20.55;;;17.40;;
51578;SDS011;47998;53.242;6.386;2023-05-07T10:45:31;22.40;;;17.38;;
51578;SDS011;47998;53.242;6.386;2023-05-07T10:48:13;32.17;;;21.73;;
51578;SDS011;47998;53.242;6.386;2023-05-07T10:50:40;30.55;;;20.17;;
51578;SDS011;47998;53.242;6.386;2023-05-07T10:55:42;19.00;;;16.38;;
51578;SDS011;47998;53.242;6.386;2023-05-07T11:00:47;18.15;;;16.17;;
51578;SDS011;47998;53.242;6.386;2023-05-07T11:03:13;22.75;;;18.40;;
51578;SDS011;47998;53.242;6.386;2023-05-07T11:05:40;24.23;;;18.17;;
51578;SDS011;47998;53.242;6.386;2023-05-07T11:08:07;17.65;;;15.75;;
51578;SDS011;47998;53.242;6.386;2023-05-07T11:10:49;22.33;;;17.10;;
51578;SDS011;47998;53.242;6.386;2023-05-07T11:13:15;15.60;;;13.75;;
51578;SDS011;47998;53.242;6.386;2023-05-07T11:15:42;20.02;;;15.45;;
51578;SDS011;47998;53.242;6.386;2023-05-07T11:18:13;17.13;;;15.00;;
51578;SDS011;47998;53.242;6.386;2023-05-07T11:26:00;17.23;;;14.65;;
51578;SDS011;47998;53.242;6.386;2023-05-07T11:28:27;16.17;;;14.68;;
51578;SDS011;47998;53.242;6.386;2023-05-07T11:30:54;15.73;;;14.13;;
51578;SDS011;47998;53.242;6.386;2023-05-07T11:33:22;17.30;;;14.52;;
51578;SDS011;47998;53.242;6.386;2023-05-07T11:35:48;15.80;;;14.20;;
51578;SDS011;47998;53.242;6.386;2023-05-07T11:38:14;14.85;;;13.27;;
51578;SDS011;47998;53.242;6.386;2023-05-07T11:40:53;15.02;;;13.52;;
51578;SDS011;47998;53.242;6.386;2023-05-07T11:43:27;14.00;;;12.50;;
51578;SDS011;47998;53.242;6.386;2023-05-07T11:45:53;16.42;;;13.45;;
51578;SDS011;47998;53.242;6.386;2023-05-07T11:48:20;15.40;;;12.98;;
51578;SDS011;47998;53.242;6.386;2023-05-07T11:50:53;13.40;;;12.00;;
51578;SDS011;47998;53.242;6.386;2023-05-07T11:53:25;13.30;;;12.00;;
51578;SDS011;47998;53.242;6.386;2023-05-07T11:55:55;13.65;;;12.25;;
51578;SDS011;47998;53.242;6.386;2023-05-07T11:58:22;13.18;;;11.88;;
51578;SDS011;47998;53.242;6.386;2023-05-07T12:00:49;19.02;;;13.10;;
51578;SDS011;47998;53.242;6.386;2023-05-07T12:03:15;14.45;;;12.75;;
51578;SDS011;47998;53.242;6.386;2023-05-07T12:05:42;14.18;;;11.80;;
51578;SDS011;47998;53.242;6.386;2023-05-07T12:08:13;13.40;;;11.90;;
51578;SDS011;47998;53.242;6.386;2023-05-07T12:10:43;13.00;;;11.70;;
51578;SDS011;47998;53.242;6.386;2023-05-07T12:13:17;13.60;;;11.00;;
51578;SDS011;47998;53.242;6.386;2023-05-07T12:15:43;13.07;;;11.70;;
51578;SDS011;47998;53.242;6.386;2023-05-07T12:18:12;13.00;;;11.68;;
51578;SDS011;47998;53.242;6.386;2023-05-07T12:20:39;12.85;;;11.55;;
51578;SDS011;47998;53.242;6.386;2023-05-07T12:23:05;14.00;;;12.63;;
51578;SDS011;47998;53.242;6.386;2023-05-07T12:25:31;12.52;;;11.25;;
51578;SDS011;47998;53.242;6.386;2023-05-07T12:28:01;12.63;;;11.32;;
51578;SDS011;47998;53.242;6.386;2023-05-07T12:30:29;12.48;;;11.32;;
51578;SDS011;47998;53.242;6.386;2023-05-07T12:33:05;14.32;;;11.05;;
51578;SDS011;47998;53.242;6.386;2023-05-07T12:35:31;11.82;;;10.63;;
51578;SDS011;47998;53.242;6.386;2023-05-07T12:38:01;12.77;;;10.98;;
51578;SDS011;47998;53.242;6.386;2023-05-07T12:40:39;12.80;;;11.50;;
51578;SDS011;47998;53.242;6.386;2023-05-07T12:43:06;12.00;;;10.90;;
51578;SDS011;47998;53.242;6.386;2023-05-07T12:45:39;12.13;;;10.82;;
51578;SDS011;47998;53.242;6.386;2023-05-07T12:48:06;12.75;;;11.55;;
51578;SDS011;47998;53.242;6.386;2023-05-07T12:50:34;13.77;;;11.30;;
51578;SDS011;47998;53.242;6.386;2023-05-07T12:53:00;12.90;;;10.75;;
51578;SDS011;47998;53.242;6.386;2023-05-07T12:55:30;12.20;;;11.10;;
51578;SDS011;47998;53.242;6.386;2023-05-07T12:57:57;12.50;;;11.13;;
51578;SDS011;47998;53.242;6.386;2023-05-07T13:00:36;13.98;;;12.45;;
51578;SDS011;47998;53.242;6.386;2023-05-07T13:03:03;11.98;;;10.77;;
51578;SDS011;47998;53.242;6.386;2023-05-07T13:05:29;12.05;;;10.82;;
51578;SDS011;47998;53.242;6.386;2023-05-07T13:07:55;11.35;;;10.30;;
51578;SDS011;47998;53.242;6.386;2023-05-07T13:10:22;12.20;;;10.75;;
51578;SDS011;47998;53.242;6.386;2023-05-07T13:12:48;11.45;;;10.35;;
51578;SDS011;47998;53.242;6.386;2023-05-07T13:15:14;10.75;;;9.70;;
51578;SDS011;47998;53.242;6.386;2023-05-07T13:17:40;11.13;;;10.13;;
51578;SDS011;47998;53.242;6.386;2023-05-07T13:20:06;10.73;;;9.52;;
51578;SDS011;47998;53.242;6.386;2023-05-07T13:22:34;10.90;;;9.75;;
51578;SDS011;47998;53.242;6.386;2023-05-07T13:24:59;11.00;;;9.90;;
51578;SDS011;47998;53.242;6.386;2023-05-07T13:27:25;10.93;;;9.82;;
51578;SDS011;47998;53.242;6.386;2023-05-07T13:29:51;10.13;;;9.10;;
51578;SDS011;47998;53.242;6.386;2023-05-07T13:32:17;10.52;;;9.57;;
51578;SDS011;47998;53.242;6.386;2023-05-07T13:34:43;11.48;;;10.30;;
51578;SDS011;47998;53.242;6.386;2023-05-07T13:37:09;11.07;;;9.82;;
51578;SDS011;47998;53.242;6.386;2023-05-07T13:39:35;11.07;;;10.07;;
51578;SDS011;47998;53.242;6.386;2023-05-07T13:42:01;10.85;;;9.85;;
51578;SDS011;47998;53.242;6.386;2023-05-07T13:44:27;10.82;;;9.82;;
51578;SDS011;47998;53.242;6.386;2023-05-07T13:46:53;11.00;;;9.90;;
51578;SDS011;47998;53.242;6.386;2023-05-07T13:49:19;12.07;;;10.88;;
51578;SDS011;47998;53.242;6.386;2023-05-07T13:51:44;10.82;;;9.82;;
51578;SDS011;47998;53.242;6.386;2023-05-07T13:54:10;10.82;;;9.73;;
51578;SDS011;47998;53.242;6.386;2023-05-07T13:56:36;11.50;;;10.27;;
51578;SDS011;47998;53.242;6.386;2023-05-07T13:59:02;11.75;;;10.65;;
51578;SDS011;47998;53.242;6.386;2023-05-07T14:01:28;11.38;;;10.38;;
51578;SDS011;47998;53.242;6.386;2023-05-07T14:03:55;22.40;;;9.00;;
51578;SDS011;47998;53.242;6.386;2023-05-07T14:06:21;11.18;;;9.75;;
51578;SDS011;47998;53.242;6.386;2023-05-07T14:08:47;10.45;;;9.45;;
51578;SDS011;47998;53.242;6.386;2023-05-07T14:11:12;10.45;;;9.43;;
51578;SDS011;47998;53.242;6.386;2023-05-07T14:13:38;9.48;;;8.55;;
51578;SDS011;47998;53.242;6.386;2023-05-07T14:16:04;10.38;;;9.38;;
51578;SDS011;47998;53.242;6.386;2023-05-07T14:18:29;10.27;;;9.27;;
51578;SDS011;47998;53.242;6.386;2023-05-07T14:20:55;11.07;;;9.95;;
51578;SDS011;47998;53.242;6.386;2023-05-07T14:23:21;10.50;;;9.40;;
51578;SDS011;47998;53.242;6.386;2023-05-07T14:25:51;10.43;;;9.43;;
51578;SDS011;47998;53.242;6.386;2023-05-07T14:28:18;11.23;;;9.90;;
51578;SDS011;47998;53.242;6.386;2023-05-07T14:30:44;10.77;;;9.68;;
51578;SDS011;47998;53.242;6.386;2023-05-07T14:33:10;11.32;;;10.05;;